sensor_id;sensor_type;location;lat;lon;timestamp;P1;durP1;ratioP1;P2;durP2;ratioP2
18399;SDS011;9326;49.468;11.008;2022-12-11T00:00:04;22.30;;;14.20;;
18399;SDS011;9326;49.468;11.008;2022-12-11T00:02:32;22.20;;;14.23;;
18399;SDS011;9326;49.468;11.008;2022-12-11T00:05:00;18.73;;;12.43;;
18399;SDS011;9326;49.468;11.008;2022-12-11T00:07:28;18.77;;;12.20;;
18399;SDS011;9326;49.468;11.008;2022-12-11T00:09:55;18.90;;;10.83;;
18399;SDS011;9326;49.468;11.008;2022-12-11T00:12:22;17.83;;;10.47;;
18399;SDS011;9326;49.468;11.008;2022-12-11T00:14:49;18.40;;;10.70;;
18399;SDS011;9326;49.468;11.008;2022-12-11T00:17:16;18.50;;;10.83;;
18399;SDS011;9326;49.468;11.008;2022-12-11T00:19:43;18.53;;;10.47;;
18399;SDS011;9326;49.468;11.008;2022-12-11T00:22:12;18.47;;;11.23;;
18399;SDS011;9326;49.468;11.008;2022-12-11T00:24:39;17.87;;;11.03;;
18399;SDS011;9326;49.468;11.008;2022-12-11T00:27:06;18.70;;;11.03;;
18399;SDS011;9326;49.468;11.008;2022-12-11T00:29:33;17.47;;;9.37;;
18399;SDS011;9326;49.468;11.008;2022-12-11T00:32:00;15.80;;;10.43;;
18399;SDS011;9326;49.468;11.008;2022-12-11T00:34:27;15.50;;;10.00;;
18399;SDS011;9326;49.468;11.008;2022-12-11T00:36:55;17.83;;;11.37;;
18399;SDS011;9326;49.468;11.008;2022-12-11T00:39:24;21.00;;;14.17;;
18399;SDS011;9326;49.468;11.008;2022-12-11T00:41:51;19.30;;;14.47;;
18399;SDS011;9326;49.468;11.008;2022-12-11T00:44:18;21.70;;;14.97;;
18399;SDS011;9326;49.468;11.008;2022-12-11T00:46:45;20.07;;;14.80;;
18399;SDS011;9326;49.468;11.008;2022-12-11T00:49:13;20.37;;;14.70;;
18399;SDS011;9326;49.468;11.008;2022-12-11T00:51:40;21.70;;;14.50;;
18399;SDS011;9326;49.468;11.008;2022-12-11T00:54:07;21.27;;;14.23;;
18399;SDS011;9326;49.468;11.008;2022-12-11T00:56:35;20.47;;;14.70;;
18399;SDS011;9326;49.468;11.008;2022-12-11T00:59:02;20.27;;;14.37;;
18399;SDS011;9326;49.468;11.008;2022-12-11T06:02:40;26.80;;;19.37;;
18399;SDS011;9326;49.468;11.008;2022-12-11T06:05:08;25.67;;;18.90;;
18399;SDS011;9326;49.468;11.008;2022-12-11T06:07:35;24.10;;;17.90;;
18399;SDS011;9326;49.468;11.008;2022-12-11T06:10:02;22.53;;;17.10;;
18399;SDS011;9326;49.468;11.008;2022-12-11T06:12:29;24.27;;;17.30;;
18399;SDS011;9326;49.468;11.008;2022-12-11T06:14:56;23.47;;;16.83;;
18399;SDS011;9326;49.468;11.008;2022-12-11T06:17:23;23.57;;;16.37;;
18399;SDS011;9326;49.468;11.008;2022-12-11T06:19:52;20.07;;;15.03;;
18399;SDS011;9326;49.468;11.008;2022-12-11T06:22:19;21.87;;;15.07;;
18399;SDS011;9326;49.468;11.008;2022-12-11T06:24:46;19.30;;;14.50;;
18399;SDS011;9326;49.468;11.008;2022-12-11T06:27:13;19.83;;;15.43;;
18399;SDS011;9326;49.468;11.008;2022-12-11T06:29:40;21.50;;;15.00;;
18399;SDS011;9326;49.468;11.008;2022-12-11T06:32:07;19.63;;;14.63;;
18399;SDS011;9326;49.468;11.008;2022-12-11T06:34:34;21.63;;;15.73;;
18399;SDS011;9326;49.468;11.008;2022-12-11T06:37:02;19.40;;;14.53;;
18399;SDS011;9326;49.468;11.008;2022-12-11T06:39:30;22.47;;;15.83;;
18399;SDS011;9326;49.468;11.008;2022-12-11T06:41:57;20.50;;;15.37;;
18399;SDS011;9326;49.468;11.008;2022-12-11T06:44:24;20.17;;;15.43;;
18399;SDS011;9326;49.468;11.008;2022-12-11T06:46:51;20.27;;;15.40;;
18399;SDS011;9326;49.468;11.008;2022-12-11T06:49:18;19.07;;;14.67;;
18399;SDS011;9326;49.468;11.008;2022-12-11T06:51:45;20.20;;;15.30;;
18399;SDS011;9326;49.468;11.008;2022-12-11T06:54:14;22.03;;;15.17;;
18399;SDS011;9326;49.468;11.008;2022-12-11T06:56:41;19.73;;;14.63;;
18399;SDS011;9326;49.468;11.008;2022-12-11T06:59:09;19.33;;;14.83;;
18399;SDS011;9326;49.468;11.008;2022-12-11T07:01:36;21.00;;;15.27;;
18399;SDS011;9326;49.468;11.008;2022-12-11T07:04:04;21.07;;;15.27;;
18399;SDS011;9326;49.468;11.008;2022-12-11T07:06:31;21.10;;;15.33;;
18399;SDS011;9326;49.468;11.008;2022-12-11T07:08:58;21.33;;;15.73;;
18399;SDS011;9326;49.468;11.008;2022-12-11T07:11:27;22.67;;;15.93;;
18399;SDS011;9326;49.468;11.008;2022-12-11T07:13:56;23.17;;;16.23;;
18399;SDS011;9326;49.468;11.008;2022-12-11T07:16:24;22.50;;;16.17;;
18399;SDS011;9326;49.468;11.008;2022-12-11T07:18:51;22.27;;;15.80;;
18399;SDS011;9326;49.468;11.008;2022-12-11T07:21:20;23.63;;;16.33;;
18399;SDS011;9326;49.468;11.008;2022-12-11T07:23:48;19.27;;;14.97;;
18399;SDS011;9326;49.468;11.008;2022-12-11T07:26:16;31.87;;;21.73;;
18399;SDS011;9326;49.468;11.008;2022-12-11T07:28:44;66.13;;;40.27;;
18399;SDS011;9326;49.468;11.008;2022-12-11T07:31:13;20.27;;;15.90;;
18399;SDS011;9326;49.468;11.008;2022-12-11T07:33:40;22.57;;;17.17;;
18399;SDS011;9326;49.468;11.008;2022-12-11T07:36:09;21.37;;;16.83;;
18399;SDS011;9326;49.468;11.008;2022-12-11T07:38:36;21.27;;;16.20;;
18399;SDS011;9326;49.468;11.008;2022-12-11T07:41:04;20.30;;;16.73;;
18399;SDS011;9326;49.468;11.008;2022-12-11T07:43:31;20.87;;;16.40;;
18399;SDS011;9326;49.468;11.008;2022-12-11T07:46:00;19.73;;;15.27;;
18399;SDS011;9326;49.468;11.008;2022-12-11T07:48:28;22.03;;;16.07;;
18399;SDS011;9326;49.468;11.008;2022-12-11T07:50:55;22.67;;;17.03;;
18399;SDS011;9326;49.468;11.008;2022-12-11T07:53:22;21.40;;;16.60;;
18399;SDS011;9326;49.468;11.008;2022-12-11T07:55:49;20.37;;;15.93;;
18399;SDS011;9326;49.468;11.008;2022-12-11T07:58:16;21.47;;;16.60;;
18399;SDS011;9326;49.468;11.008;2022-12-11T08:00:44;21.20;;;16.50;;
18399;SDS011;9326;49.468;11.008;2022-12-11T08:03:14;19.70;;;16.07;;
18399;SDS011;9326;49.468;11.008;2022-12-11T08:05:45;21.07;;;16.23;;
18399;SDS011;9326;49.468;11.008;2022-12-11T08:08:13;20.93;;;16.10;;
18399;SDS011;9326;49.468;11.008;2022-12-11T08:10:41;19.23;;;15.83;;
18399;SDS011;9326;49.468;11.008;2022-12-11T08:13:08;21.13;;;15.03;;
18399;SDS011;9326;49.468;11.008;2022-12-11T08:15:36;20.27;;;16.10;;
18399;SDS011;9326;49.468;11.008;2022-12-11T08:18:04;22.70;;;16.87;;
18399;SDS011;9326;49.468;11.008;2022-12-11T08:20:32;19.57;;;15.83;;
18399;SDS011;9326;49.468;11.008;2022-12-11T08:22:59;18.87;;;15.13;;
18399;SDS011;9326;49.468;11.008;2022-12-11T08:25:26;20.37;;;15.80;;
18399;SDS011;9326;49.468;11.008;2022-12-11T08:27:53;20.93;;;16.43;;
18399;SDS011;9326;49.468;11.008;2022-12-11T08:30:20;18.43;;;15.03;;
18399;SDS011;9326;49.468;11.008;2022-12-11T08:32:47;22.13;;;16.20;;
18399;SDS011;9326;49.468;11.008;2022-12-11T08:35:14;19.60;;;15.97;;
18399;SDS011;9326;49.468;11.008;2022-12-11T08:37:43;20.93;;;16.70;;
18399;SDS011;9326;49.468;11.008;2022-12-11T08:40:10;20.80;;;16.07;;
18399;SDS011;9326;49.468;11.008;2022-12-11T08:42:38;22.30;;;17.23;;
18399;SDS011;9326;49.468;11.008;2022-12-11T08:45:05;20.13;;;16.30;;
18399;SDS011;9326;49.468;11.008;2022-12-11T08:47:33;18.70;;;15.60;;
18399;SDS011;9326;49.468;11.008;2022-12-11T08:50:00;17.93;;;14.67;;
18399;SDS011;9326;49.468;11.008;2022-12-11T08:52:27;19.03;;;14.47;;
18399;SDS011;9326;49.468;11.008;2022-12-11T08:54:56;19.63;;;15.17;;
18399;SDS011;9326;49.468;11.008;2022-12-11T08:57:23;17.67;;;14.77;;
18399;SDS011;9326;49.468;11.008;2022-12-11T08:59:50;20.80;;;15.77;;
18399;SDS011;9326;49.468;11.008;2022-12-11T09:02:17;19.50;;;15.13;;
18399;SDS011;9326;49.468;11.008;2022-12-11T09:04:44;18.87;;;15.33;;
18399;SDS011;9326;49.468;11.008;2022-12-11T09:07:12;21.83;;;16.30;;
18399;SDS011;9326;49.468;11.008;2022-12-11T09:09:39;20.33;;;15.57;;
18399;SDS011;9326;49.468;11.008;2022-12-11T09:12:07;19.10;;;14.80;;
18399;SDS011;9326;49.468;11.008;2022-12-11T09:14:34;17.07;;;13.70;;
18399;SDS011;9326;49.468;11.008;2022-12-11T09:17:02;18.57;;;14.50;;
18399;SDS011;9326;49.468;11.008;2022-12-11T09:19:30;18.23;;;14.50;;
18399;SDS011;9326;49.468;11.008;2022-12-11T09:21:58;19.80;;;14.23;;
18399;SDS011;9326;49.468;11.008;2022-12-11T09:24:25;18.90;;;14.60;;
18399;SDS011;9326;49.468;11.008;2022-12-11T09:26:52;18.43;;;14.23;;
18399;SDS011;9326;49.468;11.008;2022-12-11T09:29:21;20.53;;;13.63;;
18399;SDS011;9326;49.468;11.008;2022-12-11T09:31:48;18.70;;;13.60;;
18399;SDS011;9326;49.468;11.008;2022-12-11T09:34:16;19.53;;;13.97;;
18399;SDS011;9326;49.468;11.008;2022-12-11T09:36:44;17.57;;;13.83;;
18399;SDS011;9326;49.468;11.008;2022-12-11T09:39:11;17.87;;;13.83;;
18399;SDS011;9326;49.468;11.008;2022-12-11T09:41:39;18.93;;;13.03;;
18399;SDS011;9326;49.468;11.008;2022-12-11T09:44:14;16.23;;;10.67;;
18399;SDS011;9326;49.468;11.008;2022-12-11T09:46:43;16.73;;;10.27;;
18399;SDS011;9326;49.468;11.008;2022-12-11T09:49:13;15.37;;;10.07;;
18399;SDS011;9326;49.468;11.008;2022-12-11T09:51:45;16.23;;;10.57;;
18399;SDS011;9326;49.468;11.008;2022-12-11T09:54:13;17.63;;;12.27;;
18399;SDS011;9326;49.468;11.008;2022-12-11T09:56:41;18.57;;;12.10;;
18399;SDS011;9326;49.468;11.008;2022-12-11T09:59:12;18.27;;;13.37;;
18399;SDS011;9326;49.468;11.008;2022-12-11T10:01:47;17.37;;;13.13;;
18399;SDS011;9326;49.468;11.008;2022-12-11T10:04:17;18.83;;;13.20;;
18399;SDS011;9326;49.468;11.008;2022-12-11T10:06:48;18.07;;;12.70;;
18399;SDS011;9326;49.468;11.008;2022-12-11T10:09:18;16.33;;;11.97;;
18399;SDS011;9326;49.468;11.008;2022-12-11T10:11:52;15.80;;;12.10;;
18399;SDS011;9326;49.468;11.008;2022-12-11T10:14:22;17.00;;;13.20;;
18399;SDS011;9326;49.468;11.008;2022-12-11T10:16:53;18.63;;;14.33;;
18399;SDS011;9326;49.468;11.008;2022-12-11T10:19:25;18.53;;;14.90;;
18399;SDS011;9326;49.468;11.008;2022-12-11T10:21:53;18.13;;;13.73;;
18399;SDS011;9326;49.468;11.008;2022-12-11T10:24:21;18.87;;;13.60;;
18399;SDS011;9326;49.468;11.008;2022-12-11T10:26:51;17.70;;;14.53;;
18399;SDS011;9326;49.468;11.008;2022-12-11T10:29:20;18.93;;;15.13;;
18399;SDS011;9326;49.468;11.008;2022-12-11T10:31:48;18.40;;;13.53;;
18399;SDS011;9326;49.468;11.008;2022-12-11T10:34:19;18.70;;;13.30;;
18399;SDS011;9326;49.468;11.008;2022-12-11T10:36:51;17.47;;;12.83;;
18399;SDS011;9326;49.468;11.008;2022-12-11T10:39:21;17.17;;;13.43;;
18399;SDS011;9326;49.468;11.008;2022-12-11T10:41:49;18.60;;;14.50;;
18399;SDS011;9326;49.468;11.008;2022-12-11T10:44:17;18.30;;;12.97;;
18399;SDS011;9326;49.468;11.008;2022-12-11T10:46:44;18.83;;;14.93;;
18399;SDS011;9326;49.468;11.008;2022-12-11T10:49:21;23.33;;;18.67;;
18399;SDS011;9326;49.468;11.008;2022-12-11T10:51:49;20.63;;;17.73;;
18399;SDS011;9326;49.468;11.008;2022-12-11T10:54:28;18.43;;;14.13;;
18399;SDS011;9326;49.468;11.008;2022-12-11T10:56:55;19.37;;;14.20;;
18399;SDS011;9326;49.468;11.008;2022-12-11T10:59:24;17.70;;;13.53;;
18399;SDS011;9326;49.468;11.008;2022-12-11T11:01:53;16.90;;;12.90;;
18399;SDS011;9326;49.468;11.008;2022-12-11T11:04:22;17.67;;;12.90;;
18399;SDS011;9326;49.468;11.008;2022-12-11T11:06:59;16.27;;;12.37;;
18399;SDS011;9326;49.468;11.008;2022-12-11T11:09:27;17.90;;;13.40;;
18399;SDS011;9326;49.468;11.008;2022-12-11T11:11:55;19.40;;;17.10;;
18399;SDS011;9326;49.468;11.008;2022-12-11T11:14:22;15.03;;;10.93;;
18399;SDS011;9326;49.468;11.008;2022-12-11T11:16:49;17.43;;;13.83;;
18399;SDS011;9326;49.468;11.008;2022-12-11T11:19:17;14.67;;;11.10;;
18399;SDS011;9326;49.468;11.008;2022-12-11T11:21:48;14.27;;;11.03;;
18399;SDS011;9326;49.468;11.008;2022-12-11T11:24:26;14.47;;;11.43;;
18399;SDS011;9326;49.468;11.008;2022-12-11T11:26:54;14.23;;;11.53;;
18399;SDS011;9326;49.468;11.008;2022-12-11T11:29:24;14.90;;;10.83;;
18399;SDS011;9326;49.468;11.008;2022-12-11T11:31:53;13.47;;;10.60;;
18399;SDS011;9326;49.468;11.008;2022-12-11T11:34:20;14.13;;;11.23;;
18399;SDS011;9326;49.468;11.008;2022-12-11T11:36:55;15.23;;;10.87;;
18399;SDS011;9326;49.468;11.008;2022-12-11T11:39:25;13.37;;;10.20;;
18399;SDS011;9326;49.468;11.008;2022-12-11T11:41:55;16.07;;;12.60;;
18399;SDS011;9326;49.468;11.008;2022-12-11T11:44:26;17.10;;;13.03;;
18399;SDS011;9326;49.468;11.008;2022-12-11T11:46:56;15.40;;;12.40;;
18399;SDS011;9326;49.468;11.008;2022-12-11T11:49:27;15.43;;;12.33;;
18399;SDS011;9326;49.468;11.008;2022-12-11T11:52:02;14.77;;;11.27;;
18399;SDS011;9326;49.468;11.008;2022-12-11T11:54:34;16.70;;;11.20;;
18399;SDS011;9326;49.468;11.008;2022-12-11T11:57:03;12.77;;;9.37;;
18399;SDS011;9326;49.468;11.008;2022-12-11T11:59:38;13.27;;;8.93;;
18399;SDS011;9326;49.468;11.008;2022-12-11T12:02:12;13.30;;;10.47;;
18399;SDS011;9326;49.468;11.008;2022-12-11T12:04:40;13.43;;;10.50;;
18399;SDS011;9326;49.468;11.008;2022-12-11T12:07:15;12.80;;;9.67;;
18399;SDS011;9326;49.468;11.008;2022-12-11T12:09:48;14.63;;;10.73;;
18399;SDS011;9326;49.468;11.008;2022-12-11T12:12:23;12.80;;;10.17;;
18399;SDS011;9326;49.468;11.008;2022-12-11T12:14:55;13.20;;;10.63;;
18399;SDS011;9326;49.468;11.008;2022-12-11T12:17:25;14.50;;;10.90;;
18399;SDS011;9326;49.468;11.008;2022-12-11T12:20:02;13.13;;;10.30;;
18399;SDS011;9326;49.468;11.008;2022-12-11T12:25:21;12.37;;;10.40;;
18399;SDS011;9326;49.468;11.008;2022-12-11T12:27:54;12.70;;;10.23;;
18399;SDS011;9326;49.468;11.008;2022-12-11T12:30:23;12.57;;;10.17;;
18399;SDS011;9326;49.468;11.008;2022-12-11T12:32:58;12.53;;;10.10;;
18399;SDS011;9326;49.468;11.008;2022-12-11T12:35:33;12.80;;;10.40;;
18399;SDS011;9326;49.468;11.008;2022-12-11T12:38:04;13.20;;;10.03;;
18399;SDS011;9326;49.468;11.008;2022-12-11T12:40:34;11.80;;;10.13;;
18399;SDS011;9326;49.468;11.008;2022-12-11T12:43:25;11.30;;;9.17;;
18399;SDS011;9326;49.468;11.008;2022-12-11T12:45:58;12.93;;;10.13;;
18399;SDS011;9326;49.468;11.008;2022-12-11T12:48:28;12.77;;;9.47;;
18399;SDS011;9326;49.468;11.008;2022-12-11T12:50:55;10.97;;;8.90;;
18399;SDS011;9326;49.468;11.008;2022-12-11T12:53:23;10.50;;;7.17;;
18399;SDS011;9326;49.468;11.008;2022-12-11T12:55:52;12.93;;;9.73;;
18399;SDS011;9326;49.468;11.008;2022-12-11T12:58:26;13.20;;;10.53;;
18399;SDS011;9326;49.468;11.008;2022-12-11T13:00:53;12.83;;;9.80;;
18399;SDS011;9326;49.468;11.008;2022-12-11T13:03:21;10.67;;;9.13;;
18399;SDS011;9326;49.468;11.008;2022-12-11T13:05:54;12.97;;;10.17;;
18399;SDS011;9326;49.468;11.008;2022-12-11T13:08:23;11.67;;;9.80;;
18399;SDS011;9326;49.468;11.008;2022-12-11T13:10:57;14.43;;;11.40;;
18399;SDS011;9326;49.468;11.008;2022-12-11T13:13:29;15.07;;;11.50;;
18399;SDS011;9326;49.468;11.008;2022-12-11T13:16:04;13.20;;;10.57;;
18399;SDS011;9326;49.468;11.008;2022-12-11T13:18:33;13.50;;;10.50;;
18399;SDS011;9326;49.468;11.008;2022-12-11T13:21:00;14.20;;;10.63;;
18399;SDS011;9326;49.468;11.008;2022-12-11T13:23:28;12.97;;;9.97;;
18399;SDS011;9326;49.468;11.008;2022-12-11T13:25:58;11.77;;;8.97;;
18399;SDS011;9326;49.468;11.008;2022-12-11T13:28:26;12.37;;;9.03;;
18399;SDS011;9326;49.468;11.008;2022-12-11T13:30:58;12.43;;;9.43;;
18399;SDS011;9326;49.468;11.008;2022-12-11T13:33:25;10.57;;;8.97;;
18399;SDS011;9326;49.468;11.008;2022-12-11T13:36:05;11.87;;;9.17;;
18399;SDS011;9326;49.468;11.008;2022-12-11T13:38:42;11.27;;;7.93;;
18399;SDS011;9326;49.468;11.008;2022-12-11T13:41:13;9.17;;;7.50;;
18399;SDS011;9326;49.468;11.008;2022-12-11T13:43:40;10.17;;;8.80;;
18399;SDS011;9326;49.468;11.008;2022-12-11T13:46:09;9.43;;;7.43;;
18399;SDS011;9326;49.468;11.008;2022-12-11T13:48:37;7.50;;;6.10;;
18399;SDS011;9326;49.468;11.008;2022-12-11T13:51:05;8.47;;;6.37;;
18399;SDS011;9326;49.468;11.008;2022-12-11T13:53:32;8.93;;;6.50;;
18399;SDS011;9326;49.468;11.008;2022-12-11T13:56:00;9.70;;;6.90;;
18399;SDS011;9326;49.468;11.008;2022-12-11T13:58:29;8.50;;;6.70;;
18399;SDS011;9326;49.468;11.008;2022-12-11T14:01:03;9.27;;;7.47;;
18399;SDS011;9326;49.468;11.008;2022-12-11T14:03:32;10.87;;;8.60;;
18399;SDS011;9326;49.468;11.008;2022-12-11T14:06:00;9.97;;;7.90;;
18399;SDS011;9326;49.468;11.008;2022-12-11T14:08:29;9.47;;;7.90;;
18399;SDS011;9326;49.468;11.008;2022-12-11T14:10:57;10.03;;;7.60;;
18399;SDS011;9326;49.468;11.008;2022-12-11T14:13:25;9.90;;;7.93;;
18399;SDS011;9326;49.468;11.008;2022-12-11T14:15:54;11.37;;;8.53;;
18399;SDS011;9326;49.468;11.008;2022-12-11T14:18:22;10.17;;;7.87;;
18399;SDS011;9326;49.468;11.008;2022-12-11T14:20:53;12.10;;;8.80;;
18399;SDS011;9326;49.468;11.008;2022-12-11T14:23:21;11.90;;;9.07;;
18399;SDS011;9326;49.468;11.008;2022-12-11T14:25:51;12.87;;;8.60;;
18399;SDS011;9326;49.468;11.008;2022-12-11T14:28:18;10.67;;;8.03;;
18399;SDS011;9326;49.468;11.008;2022-12-11T14:30:46;11.40;;;8.80;;
18399;SDS011;9326;49.468;11.008;2022-12-11T14:33:15;10.70;;;8.30;;
18399;SDS011;9326;49.468;11.008;2022-12-11T14:35:43;13.60;;;9.17;;
18399;SDS011;9326;49.468;11.008;2022-12-11T14:38:12;11.03;;;8.63;;
18399;SDS011;9326;49.468;11.008;2022-12-11T14:40:42;10.70;;;8.43;;
18399;SDS011;9326;49.468;11.008;2022-12-11T14:43:11;14.03;;;9.00;;
18399;SDS011;9326;49.468;11.008;2022-12-11T14:45:41;13.47;;;9.00;;
18399;SDS011;9326;49.468;11.008;2022-12-11T14:48:12;11.83;;;8.57;;
18399;SDS011;9326;49.468;11.008;2022-12-11T14:50:42;11.23;;;8.50;;
18399;SDS011;9326;49.468;11.008;2022-12-11T14:53:12;12.97;;;9.30;;
18399;SDS011;9326;49.468;11.008;2022-12-11T14:55:40;10.90;;;8.77;;
18399;SDS011;9326;49.468;11.008;2022-12-11T14:58:12;12.57;;;9.30;;
18399;SDS011;9326;49.468;11.008;2022-12-11T15:00:40;14.27;;;9.90;;
18399;SDS011;9326;49.468;11.008;2022-12-11T15:03:19;13.60;;;9.40;;
18399;SDS011;9326;49.468;11.008;2022-12-11T15:05:49;12.60;;;9.30;;
18399;SDS011;9326;49.468;11.008;2022-12-11T15:08:18;12.53;;;9.63;;
18399;SDS011;9326;49.468;11.008;2022-12-11T15:10:55;14.73;;;10.03;;
18399;SDS011;9326;49.468;11.008;2022-12-11T15:13:25;12.60;;;9.20;;
18399;SDS011;9326;49.468;11.008;2022-12-11T15:15:52;14.40;;;9.40;;
18399;SDS011;9326;49.468;11.008;2022-12-11T15:18:20;12.73;;;10.00;;
18399;SDS011;9326;49.468;11.008;2022-12-11T15:20:50;13.67;;;9.80;;
18399;SDS011;9326;49.468;11.008;2022-12-11T15:23:18;12.57;;;9.90;;
18399;SDS011;9326;49.468;11.008;2022-12-11T15:25:48;12.07;;;9.73;;
18399;SDS011;9326;49.468;11.008;2022-12-11T15:28:24;15.30;;;11.17;;
18399;SDS011;9326;49.468;11.008;2022-12-11T15:30:54;14.63;;;11.03;;
18399;SDS011;9326;49.468;11.008;2022-12-11T15:33:21;15.10;;;10.83;;
18399;SDS011;9326;49.468;11.008;2022-12-11T15:35:54;13.30;;;10.80;;
18399;SDS011;9326;49.468;11.008;2022-12-11T15:38:26;14.00;;;10.83;;
18399;SDS011;9326;49.468;11.008;2022-12-11T15:40:53;14.67;;;10.10;;
18399;SDS011;9326;49.468;11.008;2022-12-11T15:43:21;11.93;;;9.47;;
18399;SDS011;9326;49.468;11.008;2022-12-11T15:45:48;13.63;;;10.50;;
18399;SDS011;9326;49.468;11.008;2022-12-11T15:48:15;14.27;;;10.60;;
18399;SDS011;9326;49.468;11.008;2022-12-11T15:50:42;13.80;;;11.43;;
18399;SDS011;9326;49.468;11.008;2022-12-11T15:53:11;13.33;;;10.50;;
18399;SDS011;9326;49.468;11.008;2022-12-11T15:55:39;15.30;;;10.60;;
18399;SDS011;9326;49.468;11.008;2022-12-11T15:58:06;14.17;;;11.50;;
18399;SDS011;9326;49.468;11.008;2022-12-11T16:00:34;14.17;;;11.10;;
18399;SDS011;9326;49.468;11.008;2022-12-11T16:03:01;13.87;;;10.93;;
18399;SDS011;9326;49.468;11.008;2022-12-11T16:05:28;15.90;;;12.13;;
18399;SDS011;9326;49.468;11.008;2022-12-11T16:07:55;17.47;;;12.57;;
18399;SDS011;9326;49.468;11.008;2022-12-11T16:10:25;14.60;;;11.20;;
18399;SDS011;9326;49.468;11.008;2022-12-11T16:12:53;16.73;;;11.57;;
18399;SDS011;9326;49.468;11.008;2022-12-11T16:15:23;15.77;;;10.87;;
18399;SDS011;9326;49.468;11.008;2022-12-11T16:17:57;16.43;;;11.20;;
18399;SDS011;9326;49.468;11.008;2022-12-11T16:20:25;14.73;;;11.33;;
18399;SDS011;9326;49.468;11.008;2022-12-11T16:22:52;16.00;;;12.30;;
18399;SDS011;9326;49.468;11.008;2022-12-11T16:25:19;14.60;;;11.13;;
18399;SDS011;9326;49.468;11.008;2022-12-11T16:27:47;15.60;;;11.53;;
18399;SDS011;9326;49.468;11.008;2022-12-11T16:30:14;14.87;;;10.87;;
18399;SDS011;9326;49.468;11.008;2022-12-11T16:32:41;14.77;;;11.10;;
18399;SDS011;9326;49.468;11.008;2022-12-11T16:35:08;14.73;;;11.20;;
18399;SDS011;9326;49.468;11.008;2022-12-11T16:37:36;16.40;;;11.27;;
18399;SDS011;9326;49.468;11.008;2022-12-11T16:40:03;18.57;;;13.50;;
18399;SDS011;9326;49.468;11.008;2022-12-11T16:42:32;16.27;;;12.17;;
18399;SDS011;9326;49.468;11.008;2022-12-11T16:45:03;18.10;;;12.87;;
18399;SDS011;9326;49.468;11.008;2022-12-11T16:47:30;16.77;;;12.90;;
18399;SDS011;9326;49.468;11.008;2022-12-11T16:49:58;15.80;;;11.83;;
18399;SDS011;9326;49.468;11.008;2022-12-11T16:52:25;19.40;;;12.47;;
18399;SDS011;9326;49.468;11.008;2022-12-11T16:54:52;17.37;;;12.07;;
18399;SDS011;9326;49.468;11.008;2022-12-11T16:57:19;17.10;;;12.17;;
18399;SDS011;9326;49.468;11.008;2022-12-11T16:59:46;16.93;;;12.40;;
18399;SDS011;9326;49.468;11.008;2022-12-11T17:02:15;14.93;;;11.13;;
18399;SDS011;9326;49.468;11.008;2022-12-11T17:04:42;17.17;;;12.43;;
18399;SDS011;9326;49.468;11.008;2022-12-11T17:07:10;15.17;;;11.60;;
18399;SDS011;9326;49.468;11.008;2022-12-11T17:09:37;19.67;;;13.07;;
18399;SDS011;9326;49.468;11.008;2022-12-11T17:12:04;18.40;;;13.23;;
18399;SDS011;9326;49.468;11.008;2022-12-11T17:14:31;15.40;;;12.33;;
18399;SDS011;9326;49.468;11.008;2022-12-11T17:16:59;16.83;;;12.30;;
18399;SDS011;9326;49.468;11.008;2022-12-11T17:19:28;18.40;;;12.83;;
18399;SDS011;9326;49.468;11.008;2022-12-11T17:21:55;17.90;;;11.87;;
18399;SDS011;9326;49.468;11.008;2022-12-11T17:24:23;19.13;;;13.10;;
18399;SDS011;9326;49.468;11.008;2022-12-11T17:26:50;18.10;;;12.43;;
18399;SDS011;9326;49.468;11.008;2022-12-11T17:29:17;19.60;;;13.23;;
18399;SDS011;9326;49.468;11.008;2022-12-11T17:31:46;20.50;;;13.87;;
18399;SDS011;9326;49.468;11.008;2022-12-11T17:34:13;19.37;;;13.00;;
18399;SDS011;9326;49.468;11.008;2022-12-11T17:36:42;18.70;;;13.83;;
18399;SDS011;9326;49.468;11.008;2022-12-11T17:39:10;19.60;;;13.33;;
18399;SDS011;9326;49.468;11.008;2022-12-11T17:41:37;19.67;;;13.83;;
18399;SDS011;9326;49.468;11.008;2022-12-11T17:44:04;19.67;;;13.97;;
18399;SDS011;9326;49.468;11.008;2022-12-11T17:46:32;21.60;;;13.87;;
18399;SDS011;9326;49.468;11.008;2022-12-11T17:49:00;23.83;;;16.00;;
18399;SDS011;9326;49.468;11.008;2022-12-11T17:51:27;34.70;;;23.10;;
18399;SDS011;9326;49.468;11.008;2022-12-11T17:53:56;38.60;;;25.43;;
18399;SDS011;9326;49.468;11.008;2022-12-11T17:56:23;28.63;;;19.33;;
18399;SDS011;9326;49.468;11.008;2022-12-11T17:58:50;26.33;;;18.83;;
18399;SDS011;9326;49.468;11.008;2022-12-11T18:01:17;23.70;;;17.33;;
18399;SDS011;9326;49.468;11.008;2022-12-11T18:03:45;21.50;;;15.43;;
18399;SDS011;9326;49.468;11.008;2022-12-11T18:06:13;24.90;;;15.83;;
18399;SDS011;9326;49.468;11.008;2022-12-11T18:08:40;22.30;;;15.77;;
18399;SDS011;9326;49.468;11.008;2022-12-11T18:11:10;22.73;;;15.77;;
18399;SDS011;9326;49.468;11.008;2022-12-11T18:13:39;22.17;;;16.63;;
18399;SDS011;9326;49.468;11.008;2022-12-11T18:16:07;22.53;;;15.87;;
18399;SDS011;9326;49.468;11.008;2022-12-11T18:18:34;22.27;;;16.10;;
18399;SDS011;9326;49.468;11.008;2022-12-11T18:21:01;23.27;;;16.50;;
18399;SDS011;9326;49.468;11.008;2022-12-11T18:23:29;22.70;;;16.60;;
18399;SDS011;9326;49.468;11.008;2022-12-11T18:25:56;22.27;;;16.80;;
18399;SDS011;9326;49.468;11.008;2022-12-11T18:28:24;23.53;;;16.80;;
18399;SDS011;9326;49.468;11.008;2022-12-11T18:30:51;25.40;;;17.23;;
18399;SDS011;9326;49.468;11.008;2022-12-11T18:33:18;24.03;;;16.40;;
18399;SDS011;9326;49.468;11.008;2022-12-11T18:35:46;22.63;;;16.33;;
18399;SDS011;9326;49.468;11.008;2022-12-11T18:38:14;24.70;;;18.17;;
18399;SDS011;9326;49.468;11.008;2022-12-11T18:40:41;25.37;;;17.77;;
18399;SDS011;9326;49.468;11.008;2022-12-11T18:43:09;24.63;;;18.10;;
18399;SDS011;9326;49.468;11.008;2022-12-11T18:45:39;24.20;;;18.37;;
18399;SDS011;9326;49.468;11.008;2022-12-11T18:48:06;24.30;;;18.37;;
18399;SDS011;9326;49.468;11.008;2022-12-11T18:50:34;27.23;;;19.10;;
18399;SDS011;9326;49.468;11.008;2022-12-11T18:53:01;27.07;;;19.50;;
18399;SDS011;9326;49.468;11.008;2022-12-11T18:55:28;33.40;;;23.83;;
18399;SDS011;9326;49.468;11.008;2022-12-11T18:57:55;28.93;;;20.60;;
18399;SDS011;9326;49.468;11.008;2022-12-11T19:00:22;27.97;;;19.03;;
18399;SDS011;9326;49.468;11.008;2022-12-11T19:02:51;25.87;;;19.40;;
18399;SDS011;9326;49.468;11.008;2022-12-11T19:05:18;24.80;;;18.03;;
18399;SDS011;9326;49.468;11.008;2022-12-11T19:07:45;24.80;;;16.87;;
18399;SDS011;9326;49.468;11.008;2022-12-11T19:10:12;26.10;;;18.97;;
18399;SDS011;9326;49.468;11.008;2022-12-11T19:12:39;26.07;;;17.93;;
18399;SDS011;9326;49.468;11.008;2022-12-11T19:15:07;25.37;;;18.27;;
18399;SDS011;9326;49.468;11.008;2022-12-11T19:17:35;31.00;;;19.80;;
18399;SDS011;9326;49.468;11.008;2022-12-11T19:20:04;35.27;;;23.30;;
18399;SDS011;9326;49.468;11.008;2022-12-11T19:22:31;26.13;;;18.53;;
18399;SDS011;9326;49.468;11.008;2022-12-11T19:24:58;23.43;;;16.97;;
18399;SDS011;9326;49.468;11.008;2022-12-11T19:27:26;22.90;;;17.03;;
18399;SDS011;9326;49.468;11.008;2022-12-11T19:29:54;25.27;;;17.73;;
18399;SDS011;9326;49.468;11.008;2022-12-11T19:32:23;23.27;;;17.03;;
18399;SDS011;9326;49.468;11.008;2022-12-11T19:34:51;25.47;;;17.20;;